createdAt,value
2022-12-18T00:02:13.980Z,-2.35
2022-12-18T00:04:40.565Z,-2.34
2022-12-18T00:07:07.333Z,-2.34
2022-12-18T00:09:40.158Z,-2.35
2022-12-18T00:14:42.738Z,-2.35
2022-12-18T00:17:09.056Z,-2.38
2022-12-18T00:19:35.578Z,-2.37
2022-12-18T00:22:02.092Z,-2.39
2022-12-18T00:24:28.426Z,-2.39
2022-12-18T00:26:54.756Z,-2.40
2022-12-18T00:29:21.401Z,-2.39
2022-12-18T00:31:47.796Z,-2.40
2022-12-18T00:34:14.773Z,-2.42
2022-12-18T00:36:42.347Z,-2.42
2022-12-18T00:39:09.319Z,-2.42
2022-12-18T00:41:54.114Z,-2.43
2022-12-18T00:44:20.505Z,-2.43
2022-12-18T00:46:48.182Z,-2.42
2022-12-18T00:49:16.550Z,-2.43
2022-12-18T00:51:43.145Z,-2.45
2022-12-18T00:54:11.140Z,-2.44
2022-12-18T00:56:45.791Z,-2.44
2022-12-18T00:59:15.548Z,-2.45
2022-12-18T01:01:42.530Z,-2.48
2022-12-18T01:04:10.380Z,-2.52
2022-12-18T01:06:36.993Z,-2.51
2022-12-18T01:09:04.006Z,-2.53
2022-12-18T01:11:30.677Z,-2.52
2022-12-18T01:13:57.123Z,-2.53
2022-12-18T01:16:24.038Z,-2.53
2022-12-18T01:18:55.404Z,-2.55
2022-12-18T01:21:23.589Z,-2.56
2022-12-18T01:23:54.353Z,-2.54
2022-12-18T01:26:21.368Z,-2.53
2022-12-18T01:28:47.749Z,-2.53
2022-12-18T01:31:19.243Z,-2.55
2022-12-18T01:33:46.538Z,-2.56
2022-12-18T01:36:18.349Z,-2.59
2022-12-18T01:38:45.114Z,-2.60
2022-12-18T01:41:11.608Z,-2.62
2022-12-18T01:43:59.602Z,-2.66
2022-12-18T01:46:28.094Z,-2.66
2022-12-18T01:49:02.496Z,-2.69
2022-12-18T01:51:31.475Z,-2.72
2022-12-18T01:53:58.973Z,-2.75
2022-12-18T01:56:25.520Z,-2.76
2022-12-18T01:58:51.884Z,-2.79
2022-12-18T02:01:18.796Z,-2.80
2022-12-18T02:03:46.098Z,-2.81
2022-12-18T02:06:27.812Z,-2.86
2022-12-18T02:09:09.674Z,-2.87
2022-12-18T02:12:00.507Z,-2.89
2022-12-18T02:15:09.663Z,-2.88
2022-12-18T02:17:42.310Z,-2.89
2022-12-18T02:20:21.045Z,-2.90
2022-12-18T02:23:26.088Z,-2.91
2022-12-18T02:26:15.579Z,-2.92
2022-12-18T02:28:52.348Z,-2.92
2022-12-18T02:31:24.994Z,-2.92
2022-12-18T02:33:55.489Z,-2.92
2022-12-18T02:36:23.701Z,-2.93
2022-12-18T02:38:52.730Z,-2.93
2022-12-18T02:41:19.855Z,-2.94
2022-12-18T02:44:09.537Z,-2.96
2022-12-18T02:46:38.529Z,-2.93
2022-12-18T02:49:36.612Z,-2.94
2022-12-18T02:52:08.915Z,-2.92
2022-12-18T02:55:04.606Z,-2.94
2022-12-18T02:57:54.074Z,-2.93
2022-12-18T03:00:23.987Z,-2.93
2022-12-18T03:03:00.316Z,-2.95
2022-12-18T03:05:45.119Z,-2.97
2022-12-18T03:08:18.382Z,-2.99
2022-12-18T03:11:02.831Z,-3.00
2022-12-18T03:13:32.070Z,-3.00
2022-12-18T03:16:00.849Z,-3.00
2022-12-18T03:18:34.422Z,-3.02
2022-12-18T03:21:06.522Z,-3.03
2022-12-18T03:23:41.523Z,-3.05
2022-12-18T03:26:11.430Z,-3.05
2022-12-18T03:28:43.053Z,-3.06
2022-12-18T03:31:13.918Z,-3.06
2022-12-18T03:34:07.233Z,-3.08
2022-12-18T03:36:33.729Z,-3.07
2022-12-18T03:39:00.356Z,-3.07
2022-12-18T03:41:36.670Z,-3.08
2022-12-18T03:44:14.785Z,-3.06
2022-12-18T03:47:07.988Z,-3.05
2022-12-18T03:49:46.401Z,-3.02
2022-12-18T03:52:21.634Z,-3.03
2022-12-18T03:54:48.542Z,-3.01
2022-12-18T03:57:19.768Z,-3.02
2022-12-18T03:59:50.425Z,-3.03
2022-12-18T04:02:19.009Z,-3.03
2022-12-18T04:04:48.313Z,-3.04
2022-12-18T04:07:15.665Z,-3.04
2022-12-18T04:09:44.236Z,-3.06
2022-12-18T04:12:10.757Z,-3.06
2022-12-18T04:14:37.121Z,-3.06
2022-12-18T04:17:04.677Z,-3.05
2022-12-18T04:19:31.222Z,-3.05
2022-12-18T04:21:57.547Z,-3.05
2022-12-18T04:24:24.054Z,-3.05
2022-12-18T04:26:50.403Z,-3.05
2022-12-18T04:29:17.030Z,-3.07
2022-12-18T04:31:43.320Z,-3.06
2022-12-18T04:34:09.934Z,-3.06
2022-12-18T04:36:36.422Z,-3.06
2022-12-18T04:39:02.744Z,-3.05
2022-12-18T04:41:29.043Z,-3.06
2022-12-18T04:43:55.476Z,-3.06
2022-12-18T04:46:21.950Z,-3.06
2022-12-18T04:48:48.352Z,-3.07
2022-12-18T04:51:14.855Z,-3.07
2022-12-18T04:53:41.723Z,-3.06
2022-12-18T04:56:12.668Z,-3.06
2022-12-18T04:58:41.054Z,-3.06
2022-12-18T05:01:11.277Z,-3.04
2022-12-18T05:03:38.775Z,-3.04
2022-12-18T05:06:07.394Z,-3.04
2022-12-18T05:08:34.589Z,-3.02
2022-12-18T05:11:05.958Z,-3.01
2022-12-18T05:13:33.234Z,-2.99
2022-12-18T05:15:59.901Z,-2.99
2022-12-18T05:18:26.712Z,-2.98
2022-12-18T05:20:54.141Z,-2.97
2022-12-18T05:23:22.757Z,-2.97
2022-12-18T05:26:01.017Z,-2.98
2022-12-18T05:28:29.009Z,-2.98
2022-12-18T05:30:58.244Z,-2.96
2022-12-18T05:33:27.052Z,-2.94
2022-12-18T05:35:58.742Z,-2.92
2022-12-18T05:38:26.977Z,-2.91
2022-12-18T05:40:54.273Z,-2.89
2022-12-18T05:43:23.379Z,-2.86
2022-12-18T05:45:50.480Z,-2.86
2022-12-18T05:48:17.836Z,-2.84
2022-12-18T05:50:48.566Z,-2.83
2022-12-18T05:53:16.843Z,-2.83
2022-12-18T05:55:44.366Z,-2.81
2022-12-18T05:58:12.789Z,-2.82
2022-12-18T06:00:41.576Z,-2.81
2022-12-18T06:03:09.776Z,-2.78
2022-12-18T06:05:41.145Z,-2.75
2022-12-18T06:08:08.473Z,-2.73
2022-12-18T06:10:35.164Z,-2.71
2022-12-18T06:13:02.205Z,-2.69
2022-12-18T06:15:28.851Z,-2.67
2022-12-18T06:17:55.451Z,-2.66
2022-12-18T06:20:22.114Z,-2.64
2022-12-18T06:22:48.633Z,-2.62
2022-12-18T06:25:15.187Z,-2.62
2022-12-18T06:27:41.961Z,-2.61
2022-12-18T06:30:10.120Z,-2.60
2022-12-18T06:32:36.449Z,-2.59
2022-12-18T06:35:02.826Z,-2.56
2022-12-18T06:37:29.437Z,-2.55
2022-12-18T06:39:57.406Z,-2.53
2022-12-18T06:42:24.600Z,-2.53
2022-12-18T06:44:50.960Z,-2.49
2022-12-18T06:47:17.399Z,-2.47
2022-12-18T06:49:44.149Z,-2.45
2022-12-18T06:52:10.480Z,-2.42
2022-12-18T06:54:36.976Z,-2.39
2022-12-18T06:57:03.342Z,-2.37
2022-12-18T06:59:30.088Z,-2.35
2022-12-18T07:01:56.749Z,-2.31
2022-12-18T07:04:23.186Z,-2.29
2022-12-18T07:06:52.123Z,-2.25
2022-12-18T07:09:18.409Z,-2.23
2022-12-18T07:11:44.801Z,-2.20
2022-12-18T07:14:11.289Z,-2.17
2022-12-18T07:16:37.743Z,-2.15
2022-12-18T07:19:04.283Z,-2.13
2022-12-18T07:21:30.832Z,-2.11
2022-12-18T07:23:57.215Z,-2.09
2022-12-18T07:26:24.146Z,-2.06
2022-12-18T07:28:50.848Z,-2.02
2022-12-18T07:31:22.652Z,-2.01
2022-12-18T07:33:51.405Z,-1.97
2022-12-18T07:36:18.182Z,-1.93
2022-12-18T07:38:47.226Z,-1.89
2022-12-18T07:41:15.106Z,-1.86
2022-12-18T07:43:42.606Z,-1.81
2022-12-18T07:46:10.675Z,-1.75
2022-12-18T07:48:38.887Z,-1.70
2022-12-18T07:51:07.219Z,-1.63
2022-12-18T07:53:34.579Z,-1.56
2022-12-18T07:56:26.575Z,-1.50
2022-12-18T07:58:50.397Z,-1.40
2022-12-18T08:01:16.873Z,-1.31
2022-12-18T08:03:43.816Z,-1.22
2022-12-18T08:06:10.741Z,-1.14
2022-12-18T08:08:37.471Z,-1.08
2022-12-18T08:11:04.341Z,-1.01
2022-12-18T08:13:30.743Z,-0.95
2022-12-18T08:16:05.093Z,-0.87
2022-12-18T08:18:33.544Z,-0.80
2022-12-18T08:21:15.948Z,-0.72
2022-12-18T08:23:43.737Z,-0.63
2022-12-18T08:26:12.540Z,-0.55
2022-12-18T08:28:39.292Z,-0.49
2022-12-18T08:31:06.403Z,-0.39
2022-12-18T08:33:33.154Z,-0.32
2022-12-18T08:36:00.788Z,-0.23
2022-12-18T08:38:27.403Z,-0.15
2022-12-18T08:41:05.358Z,-0.08
2022-12-18T08:43:50.366Z,0.04
2022-12-18T08:46:17.567Z,0.13
2022-12-18T08:48:44.600Z,0.24
2022-12-18T08:51:11.389Z,0.34
2022-12-18T08:53:38.688Z,0.43
2022-12-18T08:56:05.933Z,0.52
2022-12-18T08:58:32.512Z,0.63
2022-12-18T09:01:06.512Z,0.71
2022-12-18T09:03:33.922Z,0.82
2022-12-18T09:06:00.455Z,0.92
2022-12-18T09:08:27.497Z,0.99
2022-12-18T09:10:54.479Z,1.07
2022-12-18T09:13:21.126Z,1.13
2022-12-18T09:15:50.476Z,1.19
2022-12-18T09:18:18.982Z,1.26
2022-12-18T09:20:46.332Z,1.34
2022-12-18T09:23:13.466Z,1.41
2022-12-18T09:25:40.686Z,1.50
2022-12-18T09:28:13.704Z,1.56
2022-12-18T09:30:42.873Z,1.63
2022-12-18T09:33:09.961Z,1.70
2022-12-18T09:35:37.962Z,1.77
2022-12-18T09:38:04.635Z,1.83
2022-12-18T09:40:37.783Z,1.89
2022-12-18T09:43:08.221Z,1.95
2022-12-18T09:45:54.410Z,1.99
2022-12-18T09:48:27.217Z,2.07
2022-12-18T09:51:00.746Z,2.13
2022-12-18T09:53:31.543Z,2.18
2022-12-18T09:56:01.951Z,2.24
2022-12-18T09:58:32.924Z,2.29
2022-12-18T10:00:59.699Z,2.37
2022-12-18T10:03:26.568Z,2.42
2022-12-18T10:06:16.333Z,2.49
2022-12-18T10:09:16.663Z,2.57
2022-12-18T10:12:24.947Z,2.68
2022-12-18T10:15:18.818Z,2.79
2022-12-18T10:18:17.408Z,2.87
2022-12-18T10:20:52.563Z,2.98
2022-12-18T10:23:26.938Z,3.05
2022-12-18T10:26:04.594Z,3.14
2022-12-18T10:28:33.906Z,3.25
2022-12-18T10:31:00.443Z,3.34
2022-12-18T10:33:31.402Z,3.43
2022-12-18T10:35:58.301Z,3.51
2022-12-18T10:38:28.895Z,3.60
2022-12-18T10:40:55.183Z,3.68
2022-12-18T10:43:25.240Z,3.75
2022-12-18T10:46:21.712Z,3.82
2022-12-18T10:48:48.087Z,3.92
2022-12-18T10:51:43.867Z,3.97
2022-12-18T10:54:23.489Z,4.04
2022-12-18T10:56:50.142Z,4.11
2022-12-18T10:59:18.315Z,4.16
2022-12-18T11:01:49.452Z,4.21
2022-12-18T11:04:28.042Z,4.25
2022-12-18T11:07:06.135Z,4.30
2022-12-18T11:09:33.472Z,4.36
2022-12-18T11:12:02.615Z,4.41
2022-12-18T11:14:35.129Z,4.41
2022-12-18T11:19:58.956Z,4.43
2022-12-18T11:22:31.542Z,4.47
2022-12-18T11:25:32.614Z,4.47
2022-12-18T11:28:03.534Z,4.51
2022-12-18T11:30:37.943Z,4.52
2022-12-18T11:33:19.886Z,4.53
2022-12-18T11:35:52.627Z,4.55
2022-12-18T11:38:27.055Z,4.56
2022-12-18T11:41:07.432Z,4.57
2022-12-18T11:43:43.139Z,4.61
2022-12-18T11:46:20.380Z,4.63
2022-12-18T11:49:28.143Z,4.64
2022-12-18T11:52:20.577Z,4.71
2022-12-18T11:54:54.503Z,4.75
2022-12-18T11:57:28.851Z,4.78
2022-12-18T12:00:12.056Z,4.80
2022-12-18T12:03:07.913Z,4.84
2022-12-18T12:05:40.463Z,4.88
2022-12-18T12:08:12.605Z,4.92
2022-12-18T12:10:54.795Z,4.93
2022-12-18T12:13:34.713Z,4.96
2022-12-18T12:16:23.317Z,4.98
2022-12-18T12:19:02.678Z,5.00
2022-12-18T12:21:50.369Z,5.03
2022-12-18T12:24:31.736Z,5.05
2022-12-18T12:27:24.164Z,5.07
2022-12-18T12:30:10.349Z,5.09
2022-12-18T12:33:25.947Z,5.11
2022-12-18T12:36:13.800Z,5.13
2022-12-18T12:38:51.858Z,5.14
2022-12-18T12:41:43.054Z,5.15
2022-12-18T12:44:17.702Z,5.15
2022-12-18T12:46:46.931Z,5.16
2022-12-18T12:49:19.799Z,5.15
2022-12-18T12:51:59.148Z,5.15
2022-12-18T12:54:27.193Z,5.16
2022-12-18T12:57:08.506Z,5.18
2022-12-18T12:59:47.779Z,5.15
2022-12-18T13:02:30.636Z,5.17
2022-12-18T13:05:15.693Z,5.16
2022-12-18T13:07:54.202Z,5.18
2022-12-18T13:10:32.199Z,5.18
2022-12-18T13:13:01.800Z,5.20
2022-12-18T13:15:39.306Z,5.19
2022-12-18T13:18:09.058Z,5.24
2022-12-18T13:20:38.281Z,5.24
2022-12-18T13:23:26.741Z,5.23
2022-12-18T13:25:58.334Z,5.26
2022-12-18T13:28:47.758Z,5.25
2022-12-18T13:31:35.421Z,5.29
2022-12-18T13:34:26.249Z,5.30
2022-12-18T13:36:56.041Z,5.34
2022-12-18T13:39:32.690Z,5.35
2022-12-18T13:42:07.008Z,5.35
2022-12-18T13:44:40.691Z,5.37
2022-12-18T13:47:29.197Z,5.38
2022-12-18T13:49:55.984Z,5.43
2022-12-18T13:52:28.786Z,5.42
2022-12-18T13:54:58.762Z,5.44
2022-12-18T13:57:36.291Z,5.44
2022-12-18T14:00:32.712Z,5.44
2022-12-18T14:03:00.354Z,5.48
2022-12-18T14:05:32.908Z,5.48
2022-12-18T14:08:06.819Z,5.49
2022-12-18T14:10:45.556Z,5.50
2022-12-18T14:13:22.524Z,5.50
2022-12-18T14:15:50.265Z,5.51
2022-12-18T14:18:46.206Z,5.51
2022-12-18T14:21:26.124Z,5.51
2022-12-18T14:24:19.609Z,5.50
2022-12-18T14:26:48.134Z,5.54
2022-12-18T14:29:24.014Z,5.54
2022-12-18T14:32:17.829Z,5.53
2022-12-18T14:34:54.527Z,5.55
2022-12-18T14:37:26.897Z,5.54
2022-12-18T14:39:59.174Z,5.53
2022-12-18T14:42:28.999Z,5.53
2022-12-18T14:45:40.713Z,5.51
2022-12-18T14:48:24.412Z,5.50
2022-12-18T14:51:08.289Z,5.50
2022-12-18T14:53:42.156Z,5.52
2022-12-18T14:56:17.335Z,5.50
2022-12-18T14:58:49.906Z,5.50
2022-12-18T15:01:32.771Z,5.49
2022-12-18T15:04:00.988Z,5.51
2022-12-18T15:06:39.732Z,5.49
2022-12-18T15:09:25.790Z,5.49
2022-12-18T15:11:58.220Z,5.50
2022-12-18T15:14:30.631Z,5.50
2022-12-18T15:16:58.980Z,5.51
2022-12-18T15:19:41.503Z,5.52
2022-12-18T15:22:23.410Z,5.54
2022-12-18T15:24:51.112Z,5.57
2022-12-18T15:27:38.887Z,5.58
2022-12-18T15:30:08.681Z,5.62
2022-12-18T15:32:37.383Z,5.65
2022-12-18T15:35:16.388Z,5.67
2022-12-18T15:37:43.494Z,5.72
2022-12-18T15:40:17.435Z,5.76
2022-12-18T15:43:03.434Z,5.81
2022-12-18T15:45:30.395Z,5.88
2022-12-18T15:47:57.070Z,5.93
2022-12-18T15:50:24.192Z,5.99
2022-12-18T15:52:53.484Z,6.04
2022-12-18T15:55:43.389Z,6.09
2022-12-18T15:58:11.244Z,6.17
2022-12-18T16:00:41.076Z,6.22
2022-12-18T16:03:07.941Z,6.27
2022-12-18T16:05:34.499Z,6.32
2022-12-18T16:08:00.794Z,6.36
2022-12-18T16:10:27.680Z,6.38
2022-12-18T16:12:57.002Z,6.39
2022-12-18T16:15:25.008Z,6.42
2022-12-18T16:17:52.911Z,6.42
2022-12-18T16:20:22.489Z,6.41
2022-12-18T16:22:49.801Z,6.40
2022-12-18T16:25:26.011Z,6.38
2022-12-18T16:27:53.271Z,6.38
2022-12-18T16:30:23.197Z,6.38
2022-12-18T16:32:49.984Z,6.37
2022-12-18T16:35:17.279Z,6.36
2022-12-18T16:37:44.697Z,6.36
2022-12-18T16:40:16.708Z,6.35
2022-12-18T16:42:45.282Z,6.36
2022-12-18T16:45:16.154Z,6.35
2022-12-18T16:47:42.829Z,6.34
2022-12-18T16:50:09.915Z,6.34
2022-12-18T16:52:36.731Z,6.33
2022-12-18T16:55:04.039Z,6.33
2022-12-18T16:57:30.602Z,6.32
2022-12-18T17:00:02.958Z,6.31
2022-12-18T17:02:31.540Z,6.32
2022-12-18T17:04:58.759Z,6.33
2022-12-18T17:07:26.501Z,6.32
2022-12-18T17:09:53.996Z,6.33
2022-12-18T17:12:20.809Z,6.34
2022-12-18T17:14:47.180Z,6.34
2022-12-18T17:17:23.328Z,6.33
2022-12-18T17:19:51.303Z,6.33
2022-12-18T17:22:17.917Z,6.31
2022-12-18T17:24:44.352Z,6.33
2022-12-18T17:27:11.066Z,6.32
2022-12-18T17:29:41.259Z,6.33
2022-12-18T17:32:13.310Z,6.37
2022-12-18T17:34:39.926Z,6.39
2022-12-18T17:37:06.495Z,6.44
2022-12-18T17:39:34.399Z,6.49
2022-12-18T17:42:01.199Z,6.55
2022-12-18T17:44:27.586Z,6.61
2022-12-18T17:46:54.017Z,6.69
2022-12-18T17:49:20.678Z,6.74
2022-12-18T17:51:47.326Z,6.81
2022-12-18T17:54:13.736Z,6.85
2022-12-18T17:56:40.392Z,6.91
2022-12-18T17:59:07.801Z,6.94
2022-12-18T18:01:38.496Z,6.99
2022-12-18T18:04:08.999Z,7.03
2022-12-18T18:06:37.232Z,7.05
2022-12-18T18:09:15.147Z,7.07
2022-12-18T18:12:02.432Z,7.08
2022-12-18T18:14:29.620Z,7.10
2022-12-18T18:16:56.097Z,7.13
2022-12-18T18:19:25.145Z,7.13
2022-12-18T18:21:53.542Z,7.12
2022-12-18T18:24:23.482Z,7.11
2022-12-18T18:26:50.236Z,7.12
2022-12-18T18:29:22.774Z,7.07
2022-12-18T18:31:51.521Z,7.08
2022-12-18T18:34:22.589Z,7.05
2022-12-18T18:36:49.333Z,7.03
2022-12-18T18:39:16.438Z,6.99
2022-12-18T18:41:46.833Z,6.97
2022-12-18T18:44:14.667Z,6.95
2022-12-18T18:46:41.161Z,6.92
2022-12-18T18:49:07.711Z,6.90
2022-12-18T18:51:35.260Z,6.86
2022-12-18T18:54:02.043Z,6.84
2022-12-18T18:59:15.667Z,6.81
2022-12-18T19:01:42.506Z,6.78
2022-12-18T19:04:13.552Z,6.79
2022-12-18T19:06:40.289Z,6.80
2022-12-18T19:09:08.461Z,6.81
2022-12-18T19:11:53.842Z,6.86
2022-12-18T19:14:23.231Z,6.93
2022-12-18T19:16:50.207Z,6.99
2022-12-18T19:19:21.236Z,7.06
2022-12-18T19:21:48.102Z,7.11
2022-12-18T19:24:14.468Z,7.16
2022-12-18T19:26:41.089Z,7.22
2022-12-18T19:29:09.489Z,7.26
2022-12-18T19:31:37.120Z,7.32
2022-12-18T19:34:07.689Z,7.39
2022-12-18T19:36:37.050Z,7.42
2022-12-18T19:39:10.770Z,7.44
2022-12-18T19:41:37.204Z,7.46
2022-12-18T19:44:07.658Z,7.50
2022-12-18T19:46:35.563Z,7.51
2022-12-18T19:49:02.706Z,7.51
2022-12-18T19:51:31.597Z,7.53
2022-12-18T19:54:01.265Z,7.55
2022-12-18T19:56:31.724Z,7.56
2022-12-18T19:58:58.168Z,7.58
2022-12-18T20:01:25.824Z,7.60
2022-12-18T20:03:54.686Z,7.60
2022-12-18T20:06:31.240Z,7.60
2022-12-18T20:09:01.441Z,7.61
2022-12-18T20:11:32.868Z,7.62
2022-12-18T20:13:59.342Z,7.65
2022-12-18T20:16:25.819Z,7.65
2022-12-18T20:18:54.719Z,7.65
2022-12-18T20:21:21.430Z,7.65
2022-12-18T20:23:48.117Z,7.67
2022-12-18T20:26:14.602Z,7.66
2022-12-18T20:28:41.238Z,7.68
2022-12-18T20:31:10.387Z,7.69
2022-12-18T20:33:41.592Z,7.70
2022-12-18T20:36:13.504Z,7.71
2022-12-18T20:38:40.887Z,7.74
2022-12-18T20:41:12.010Z,7.75
2022-12-18T20:43:39.894Z,7.76
2022-12-18T20:46:09.813Z,7.77
2022-12-18T20:48:36.885Z,7.79
2022-12-18T20:51:06.848Z,7.78
2022-12-18T20:53:34.582Z,7.80
2022-12-18T20:56:02.137Z,7.81
2022-12-18T20:58:30.035Z,7.81
2022-12-18T21:01:23.841Z,7.80
2022-12-18T21:03:52.573Z,7.84
2022-12-18T21:06:22.003Z,7.84
2022-12-18T21:08:48.613Z,7.86
2022-12-18T21:11:53.925Z,7.84
2022-12-18T21:14:22.993Z,7.89
2022-12-18T21:16:50.373Z,7.91
2022-12-18T21:19:20.082Z,7.91
2022-12-18T21:21:47.303Z,7.92
2022-12-18T21:24:14.264Z,7.95
2022-12-18T21:26:45.887Z,7.97
2022-12-18T21:29:19.846Z,7.99
2022-12-18T21:31:47.097Z,8.02
2022-12-18T21:34:19.037Z,8.03
2022-12-18T21:36:46.334Z,8.05
2022-12-18T21:39:13.916Z,8.07
2022-12-18T21:41:59.094Z,8.08
2022-12-18T21:44:25.590Z,8.08
2022-12-18T21:46:56.929Z,8.09
2022-12-18T21:49:25.015Z,8.09
2022-12-18T21:51:57.339Z,8.09
2022-12-18T21:54:25.876Z,8.09
2022-12-18T21:56:53.318Z,8.10
2022-12-18T21:59:23.148Z,8.11
2022-12-18T22:01:51.341Z,8.09
2022-12-18T22:04:18.787Z,8.09
2022-12-18T22:06:46.793Z,8.07
2022-12-18T22:09:16.557Z,8.06
2022-12-18T22:11:43.262Z,8.03
2022-12-18T22:14:10.401Z,8.03
2022-12-18T22:16:37.282Z,8.03
2022-12-18T22:19:04.951Z,8.02
2022-12-18T22:21:33.920Z,8.02
2022-12-18T22:24:03.014Z,8.01
2022-12-18T22:26:35.147Z,8.00
2022-12-18T22:29:23.384Z,8.04
2022-12-18T22:31:50.513Z,8.05
2022-12-18T22:34:22.638Z,8.05
2022-12-18T22:36:49.969Z,8.08
2022-12-18T22:39:20.186Z,8.09
2022-12-18T22:41:46.854Z,8.11
2022-12-18T22:44:15.049Z,8.11
2022-12-18T22:46:50.762Z,8.11
2022-12-18T22:49:32.254Z,8.13
2022-12-18T22:52:00.132Z,8.14
2022-12-18T22:54:26.509Z,8.17
2022-12-18T22:56:52.937Z,8.17
2022-12-18T22:59:22.978Z,8.18
2022-12-18T23:01:51.523Z,8.18
2022-12-18T23:04:28.446Z,8.18
2022-12-18T23:06:59.755Z,8.19
2022-12-18T23:09:26.094Z,8.20
2022-12-18T23:11:52.426Z,8.22
2022-12-18T23:14:18.969Z,8.21
2022-12-18T23:16:45.580Z,8.22
2022-12-18T23:19:13.635Z,8.24
2022-12-18T23:21:39.924Z,8.28
2022-12-18T23:24:06.842Z,8.25
2022-12-18T23:26:33.437Z,8.25
2022-12-18T23:29:01.836Z,8.24
2022-12-18T23:31:31.096Z,8.22
2022-12-18T23:33:58.594Z,8.23
2022-12-18T23:36:25.618Z,8.24
2022-12-18T23:38:54.756Z,8.22
2022-12-18T23:41:23.734Z,8.23
2022-12-18T23:43:50.642Z,8.23
2022-12-18T23:46:27.470Z,8.23
2022-12-18T23:48:58.079Z,8.23
2022-12-18T23:51:25.764Z,8.25
2022-12-18T23:53:58.689Z,8.23
2022-12-18T23:56:27.207Z,8.25
2022-12-18T23:58:53.816Z,8.26
